Ariadna — ZGBE5 — position and weather

sailwx.info

Track history (hours):
 
Tides and Currents Weather Stations Pressure Air Temp Water Temp Dewpoint Dewpoint Depression Visibility Wind Speed Wind Dir Waves Ship Positions

Ariadna

Last reported at 2016-Jun-25 19:14 UTC. Time now 2016-Jun-26 01:05 UTC.
Position N 43°43' E 007°25'.

Length 47 m; draft 3.1 m.

Type: Pleasure craft. MMSI: 319026100.

Date/timePositionNaut miles runAvg speedWind from/ knotsBaromVisibWave heightAir tempDewpointWater temp
2016-Jun-25 19:14N 43°43' E 007°25'0 0.0
2016-Jun-25 18:32N 43°43' E 007°25'0 0.0
2016-Jun-25 15:32N 43°43' E 007°25'0 0.0
2016-Jun-25 14:30N 43°43' E 007°25'0 0.0
2016-Jun-25 12:21N 43°43' E 007°25'0 0.0
2016-Jun-25 11:05N 43°43' E 007°25'0 0.0
2016-Jun-25 10:28N 43°43' E 007°25'3511.9
2016-Jun-25 07:33N 43°14' E 007°51'10 9.1
2016-Jun-25 06:31N 43°20' E 007°40'1212.1
2016-Jun-25 05:33N 43°31' E 007°34'1111.2
2016-Jun-25 04:32N 43°41' E 007°27'3 0.3
2016-Jun-24 18:26N 43°43' E 007°25'0 0.0
2016-Jun-24 15:08N 43°43' E 007°25'6 9.4
2016-Jun-24 14:31N 43°39' E 007°30'2 2.1
2016-Jun-24 13:33N 43°40' E 007°27'  
2016-Jun-22 03:24N 43°43' E 007°25'0 0.0
2016-Jun-20 14:18N 43°43' E 007°25'1212.1
2016-Jun-20 13:21N 43°44' E 007°41'1213.2
2016-Jun-20 12:28N 43°42' E 007°57'1312.4
2016-Jun-20 11:25N 43°32' E 008°08'33 7.9
2016-Jun-20 07:16N 43°43' E 007°25'  
2016-Jun-17 15:32N 43°43' E 007°25'0 0.0
2016-Jun-17 14:32N 43°43' E 007°25'0 0.0
2016-Jun-17 03:17N 43°43' E 007°25'0 0.0
2016-Jun-17 02:26N 43°43' E 007°25'0 0.0
2016-Jun-17 01:23N 43°43' E 007°25'0 0.0
2016-Jun-16 19:20N 43°43' E 007°25'0 0.0
2016-Jun-16 13:32N 43°43' E 007°25'  
Track history (hours):
 
Tides and Currents Weather Stations Pressure Air Temp Water Temp Dewpoint Dewpoint Depression Visibility Wind Speed Wind Dir Waves Ship Positions

Ariadna

Last reported at 2016-Jun-25 19:14 UTC. Time now 2016-Jun-26 01:05 UTC.
Position N 43°43' E 007°25'.

Length 47 m; draft 3.1 m.

Type: Pleasure craft. MMSI: 319026100.

Date/timePositionNaut miles runAvg speedWind from/ knotsBaromVisibWave heightAir tempDewpointWater temp
2016-Jun-25 19:14N 43°43' E 007°25'0 0.0
2016-Jun-25 18:32N 43°43' E 007°25'0 0.0
2016-Jun-25 15:32N 43°43' E 007°25'0 0.0
2016-Jun-25 14:30N 43°43' E 007°25'0 0.0
2016-Jun-25 12:21N 43°43' E 007°25'0 0.0
2016-Jun-25 11:05N 43°43' E 007°25'0 0.0
2016-Jun-25 10:28N 43°43' E 007°25'3511.9
2016-Jun-25 07:33N 43°14' E 007°51'10 9.1
2016-Jun-25 06:31N 43°20' E 007°40'1212.1
2016-Jun-25 05:33N 43°31' E 007°34'1111.2
2016-Jun-25 04:32N 43°41' E 007°27'3 0.3
2016-Jun-24 18:26N 43°43' E 007°25'0 0.0
2016-Jun-24 15:08N 43°43' E 007°25'6 9.4
2016-Jun-24 14:31N 43°39' E 007°30'2 2.1
2016-Jun-24 13:33N 43°40' E 007°27'  
2016-Jun-22 03:24N 43°43' E 007°25'0 0.0
2016-Jun-20 14:18N 43°43' E 007°25'1212.1
2016-Jun-20 13:21N 43°44' E 007°41'1213.2
2016-Jun-20 12:28N 43°42' E 007°57'1312.4
2016-Jun-20 11:25N 43°32' E 008°08'33 7.9
2016-Jun-20 07:16N 43°43' E 007°25'  
2016-Jun-17 15:32N 43°43' E 007°25'0 0.0
2016-Jun-17 14:32N 43°43' E 007°25'0 0.0
2016-Jun-17 03:17N 43°43' E 007°25'0 0.0
2016-Jun-17 02:26N 43°43' E 007°25'0 0.0
2016-Jun-17 01:23N 43°43' E 007°25'0 0.0
2016-Jun-16 19:20N 43°43' E 007°25'0 0.0
2016-Jun-16 13:32N 43°43' E 007°25'  

Dump ship's entire track history